Time;durP1;ratioP1;P1;durP2;ratioP2;P2;SDS_P1;SDS_P2;PMS_P1;PMS_P2;Temp;Humidity;BMP_temperature;BMP_pressure;BME280_temperature;BME280_humidity;BME280_pressure;Samples;Min_cycle;Max_cycle;Signal;HPM_P1;HPM_P2
2022/01/12 00:01:45;;;;;;;2.60;1.47;;;;;;;7.07;41.64;102459.03;10506338;28;20664;-83
2022/01/12 00:06:48;;;;;;;3.93;1.57;;;;;;;6.99;41.75;102467.78;10523767;28;20218;-84
2022/01/12 00:11:50;;;;;;;1.70;1.60;;;;;;;6.52;42.72;102451.06;10523037;28;20234;-84
2022/01/12 00:16:58;;;;;;;3.93;1.33;;;;;;;6.47;42.46;102432.25;10506816;28;20218;-84
2022/01/12 00:22:01;;;;;;;2.53;1.67;;;;;;;6.30;43.13;102430.44;10507589;28;20193;-83
2022/01/12 00:37:45;;;;;;;5.80;1.70;;;;;;;6.35;43.31;102438.94;10531125;28;20291;-84
2022/01/12 00:42:47;;;;;;;2.27;1.40;;;;;;;6.67;42.15;102428.25;10516999;28;20211;-84
2022/01/12 00:47:49;;;;;;;2.00;1.60;;;;;;;7.06;41.19;102440.56;10517676;28;20254;-85
2022/01/12 00:52:53;;;;;;;2.57;1.50;;;;;;;7.06;41.09;102476.88;10510063;28;20289;-86
2022/01/12 00:57:58;;;;;;;5.27;1.90;;;;;;;7.29;40.67;102485.25;10509123;28;20201;-86
2022/01/12 01:03:00;;;;;;;2.47;1.83;;;;;;;7.65;40.20;102474.75;10511944;28;20230;-83
2022/01/12 01:08:03;;;;;;;4.33;1.90;;;;;;;7.24;41.54;102448.81;10478962;28;20261;-82
2022/01/12 01:13:06;;;;;;;2.90;1.70;;;;;;;7.35;40.74;102461.88;10491505;28;20237;-81
2022/01/12 01:28:52;;;;;;;5.97;2.20;;;;;;;6.94;41.59;102499.25;10515266;28;20230;-84
2022/01/12 01:33:55;;;;;;;2.57;1.67;;;;;;;6.25;43.28;102491.72;10520457;28;20206;-83
2022/01/12 01:38:58;;;;;;;3.10;1.50;;;;;;;6.32;43.29;102500.84;10489103;28;20506;-84
2022/01/12 01:54:30;;;;;;;3.37;2.20;;;;;;;6.98;41.99;102522.00;10491210;28;20553;-84
2022/01/12 01:59:33;;;;;;;2.97;2.10;;;;;;;6.94;42.34;102509.59;10503254;28;20217;-83
2022/01/12 02:04:35;;;;;;;3.63;2.30;;;;;;;6.05;43.99;102522.75;10517160;28;20280;-83
2022/01/12 02:09:38;;;;;;;3.90;2.60;;;;;;;6.74;42.19;102538.75;10475283;28;20227;-84
2022/01/12 02:15:17;;;;;;;2.57;2.07;;;;;;;6.29;43.67;102534.81;10457160;28;20639;-84
2022/01/12 02:35:10;;;;;;;3.77;2.37;;;;;;;6.92;42.66;102528.53;10434816;28;20211;-85
2022/01/12 02:36:27;;;;;;;5.10;2.30;;;;;;;5.91;43.97;102471.88;10455340;28;20545;-83
2022/01/12 02:41:29;;;;;;;3.90;2.53;;;;;;;6.39;43.62;102487.63;10464872;28;20211;-85
2022/01/12 02:57:14;;;;;;;2.43;2.17;;;;;;;6.62;42.72;102496.00;10452489;28;20203;-83
2022/01/12 03:02:25;;;;;;;3.57;2.43;;;;;;;6.67;42.90;102495.28;10461173;28;20638;-83
2022/01/12 03:07:36;;;;;;;3.60;2.23;;;;;;;7.75;40.23;102511.34;10435211;28;20628;-83
2022/01/12 03:12:40;;;;;;;2.10;1.90;;;;;;;7.07;41.65;102501.78;10449496;28;20205;-83
2022/01/12 03:17:44;;;;;;;4.23;2.30;;;;;;;7.61;40.60;102498.75;10460904;28;20543;-84
2022/01/12 03:22:48;;;;;;;2.73;2.07;;;;;;;7.05;41.66;102508.72;10490752;28;20203;-83
2022/01/12 03:27:56;;;;;;;3.37;2.30;;;;;;;7.28;41.66;102511.50;10490298;28;20231;-83
2022/01/12 03:33:19;;;;;;;3.90;2.17;;;;;;;7.17;41.49;102527.22;10474090;28;20538;-83
2022/01/12 03:38:21;;;;;;;2.83;2.37;;;;;;;7.67;40.65;102526.56;10473282;28;20249;-84
2022/01/12 03:43:26;;;;;;;2.70;2.23;;;;;;;7.32;41.01;102551.00;10505998;28;20203;-83
2022/01/12 03:48:29;;;;;;;5.57;2.47;;;;;;;7.47;40.83;102563.38;10514320;28;20230;-83
2022/01/12 03:53:32;;;;;;;4.07;2.37;;;;;;;7.33;41.04;102545.16;10530672;28;20263;-83
2022/01/12 03:58:34;;;;;;;5.53;3.13;;;;;;;6.65;42.66;102528.19;10498144;28;20195;-82
2022/01/12 04:03:44;;;;;;;2.83;2.23;;;;;;;6.41;43.91;102511.41;10503440;28;20207;-82
2022/01/12 04:08:47;;;;;;;2.60;2.10;;;;;;;6.99;42.79;102510.53;10509559;28;20637;-83
2022/01/12 04:13:50;;;;;;;4.67;2.70;;;;;;;7.63;41.34;102513.34;10506496;28;20240;-83
2022/01/12 04:18:52;;;;;;;3.63;2.43;;;;;;;7.15;41.74;102515.41;10506776;28;20248;-82
2022/01/12 04:23:56;;;;;;;3.97;2.47;;;;;;;7.01;42.53;102527.06;10522665;28;20203;-82
2022/01/12 04:28:59;;;;;;;3.47;2.80;;;;;;;6.84;42.89;102538.16;10506806;28;20219;-84
2022/01/12 04:34:03;;;;;;;3.03;2.63;;;;;;;6.76;42.12;102528.19;10505501;28;20532;-84
2022/01/12 04:39:05;;;;;;;3.47;2.40;;;;;;;7.08;42.33;102533.41;10505655;28;20214;-85
2022/01/12 04:44:10;;;;;;;5.17;2.80;;;;;;;7.38;41.61;102534.06;10505956;28;20206;-85
2022/01/12 04:54:33;;;;;;;4.47;2.30;;;;;;;7.37;41.62;102523.16;10507924;28;20206;-84
2022/01/12 04:59:42;;;;;;;3.60;3.07;;;;;;;7.13;42.02;102539.06;10505480;28;20221;-83
2022/01/12 05:15:33;;;;;;;3.63;3.00;;;;;;;7.45;40.78;102540.41;10506550;28;20267;-83
2022/01/12 05:20:36;;;;;;;4.37;2.70;;;;;;;7.17;41.39;102543.97;10487763;28;20207;-81
2022/01/12 05:25:39;;;;;;;5.60;3.00;;;;;;;7.72;40.23;102545.41;10503929;28;20215;-82
2022/01/12 05:30:41;;;;;;;4.17;2.60;;;;;;;7.50;41.22;102554.47;10502250;28;20268;-85
2022/01/12 05:35:44;;;;;;;4.20;2.63;;;;;;;7.53;41.20;102559.56;10503460;28;20203;-85
2022/01/12 05:40:50;;;;;;;5.87;2.90;;;;;;;8.22;39.69;102562.34;10485837;28;20214;-84
2022/01/12 05:45:58;;;;;;;4.70;2.83;;;;;;;8.21;39.47;102572.69;10482289;28;20237;-84
2022/01/12 05:51:01;;;;;;;4.90;3.23;;;;;;;7.64;41.21;102570.97;10477745;28;20261;-84
2022/01/12 05:56:05;;;;;;;3.40;2.97;;;;;;;8.03;40.34;102560.84;10460658;28;20211;-84
2022/01/12 06:01:09;;;;;;;5.77;3.37;;;;;;;7.86;40.44;102564.47;10488817;28;20251;-84
2022/01/12 06:06:12;;;;;;;4.17;2.80;;;;;;;8.06;39.72;102558.41;10483472;28;20262;-85
2022/01/12 06:11:15;;;;;;;4.00;3.27;;;;;;;7.53;40.62;102562.38;10496282;28;20644;-84
2022/01/12 06:16:19;;;;;;;6.57;2.87;;;;;;;8.28;39.36;102555.75;10490672;28;20323;-83
2022/01/12 06:21:23;;;;;;;4.07;3.00;;;;;;;7.51;40.12;102578.56;10480773;28;20237;-85
2022/01/12 06:26:39;;;;;;;5.03;3.00;;;;;;;7.93;40.18;102570.75;10487363;28;20610;-83
2022/01/12 06:31:46;;;;;;;6.73;3.40;;;;;;;8.07;39.95;102588.09;10496303;28;20210;-85
2022/01/12 06:36:49;;;;;;;5.90;3.33;;;;;;;8.13;39.49;102581.50;10532491;28;20537;-83
2022/01/12 06:41:52;;;;;;;6.47;3.30;;;;;;;8.34;38.82;102581.88;10499547;28;20207;-83
2022/01/12 06:46:57;;;;;;;6.27;3.40;;;;;;;7.99;39.82;102579.25;10498723;28;20218;-83
2022/01/12 06:52:00;;;;;;;6.27;3.50;;;;;;;8.24;39.25;102585.34;10498809;28;20603;-83
2022/01/12 06:57:02;;;;;;;4.67;3.20;;;;;;;7.95;39.48;102587.31;10530502;28;20251;-82
2022/01/12 07:02:04;;;;;;;4.63;3.00;;;;;;;8.57;38.65;102592.97;10527531;28;20203;-85
2022/01/12 07:07:10;;;;;;;4.20;3.67;;;;;;;8.25;38.82;102589.84;10519450;28;20234;-83
2022/01/12 07:12:16;;;;;;;7.07;4.17;;;;;;;7.44;41.05;102617.00;10494197;28;20292;-83
2022/01/12 07:17:18;;;;;;;7.63;3.97;;;;;;;7.52;40.80;102611.03;10498934;28;20206;-82
2022/01/12 07:22:20;;;;;;;3.93;3.37;;;;;;;7.54;40.52;102631.22;10474598;28;20207;-83
2022/01/12 07:27:23;;;;;;;6.30;4.17;;;;;;;7.36;40.71;102628.56;10470562;28;20235;-83
2022/01/12 07:32:25;;;;;;;6.57;4.17;;;;;;;7.61;39.96;102649.81;10492603;28;20195;-83
2022/01/12 07:37:27;;;;;;;5.60;3.50;;;;;;;7.91;39.90;102667.25;10506798;28;20217;-82
2022/01/12 07:42:29;;;;;;;9.30;4.33;;;;;;;8.10;39.60;102670.75;10474125;28;20203;-83
2022/01/12 07:47:32;;;;;;;6.50;3.90;;;;;;;7.22;41.42;102683.91;10499823;28;20251;-83
2022/01/12 07:52:34;;;;;;;5.90;3.80;;;;;;;7.47;41.39;102697.63;10489597;28;20241;-85
2022/01/12 07:57:37;;;;;;;7.00;4.30;;;;;;;7.64;41.53;102700.53;10473124;28;20188;-83
2022/01/12 08:02:40;;;;;;;7.87;4.23;;;;;;;7.91;40.55;102712.03;10496135;28;20245;-84
2022/01/12 08:07:42;;;;;;;6.30;4.93;;;;;;;7.52;42.31;102697.72;10477867;28;20280;-83
2022/01/12 08:12:44;;;;;;;6.07;4.47;;;;;;;7.61;41.50;102706.63;10483522;28;20206;-84
2022/01/12 08:17:47;;;;;;;7.60;5.50;;;;;;;7.43;42.28;102710.38;10495639;28;20569;-83
2022/01/12 08:22:49;;;;;;;9.87;5.87;;;;;;;7.28;43.54;102715.59;10498670;28;20202;-84
2022/01/12 08:27:51;;;;;;;9.33;6.17;;;;;;;7.39;43.49;102713.91;10473674;28;20237;-83
2022/01/12 08:32:54;;;;;;;12.20;7.17;;;;;;;6.79;45.44;102723.28;10471939;28;20234;-84
2022/01/12 08:37:57;;;;;;;12.40;7.13;;;;;;;7.68;43.45;102720.47;10479340;28;20261;-83
2022/01/12 08:42:59;;;;;;;12.47;7.33;;;;;;;7.34;43.73;102728.63;10468945;28;20198;-82
2022/01/12 08:48:02;;;;;;;10.20;7.13;;;;;;;7.93;42.85;102743.44;10483613;28;20281;-84
2022/01/12 08:53:04;;;;;;;12.57;7.30;;;;;;;7.83;43.46;102743.22;10486760;28;20199;-85
2022/01/12 08:58:06;;;;;;;10.90;6.80;;;;;;;8.21;42.20;102740.72;10522421;28;20252;-84
2022/01/12 09:03:09;;;;;;;12.17;7.13;;;;;;;8.44;41.36;102744.56;10475298;28;20203;-83
2022/01/12 09:08:11;;;;;;;10.90;6.93;;;;;;;8.21;41.90;102749.09;10466229;28;20231;-84
2022/01/12 09:13:13;;;;;;;10.43;6.47;;;;;;;7.64;42.84;102767.66;10450425;28;20211;-83
2022/01/12 09:18:18;;;;;;;10.10;7.30;;;;;;;7.91;42.61;102782.00;10517673;28;20270;-83
2022/01/12 09:23:20;;;;;;;14.57;7.37;;;;;;;7.75;43.58;102793.97;10510816;28;20206;-83
2022/01/12 09:28:22;;;;;;;11.27;7.37;;;;;;;7.55;43.17;102792.38;10510038;28;20230;-84
2022/01/12 09:33:25;;;;;;;12.40;8.00;;;;;;;7.33;44.78;102796.84;10526822;28;20235;-83
2022/01/12 09:38:27;;;;;;;12.30;7.70;;;;;;;7.07;44.95;102805.63;10527465;28;20182;-83
2022/01/12 09:43:33;;;;;;;15.73;8.77;;;;;;;7.76;43.45;102792.88;10509208;28;20545;-83
2022/01/12 09:48:36;;;;;;;13.93;8.57;;;;;;;7.93;44.00;102785.44;10516171;28;20222;-83
2022/01/12 09:53:39;;;;;;;14.53;8.20;;;;;;;8.48;42.61;102790.59;10513687;28;20220;-84
2022/01/12 09:58:42;;;;;;;14.80;8.53;;;;;;;7.52;45.33;102791.97;10524751;28;20607;-83
2022/01/12 10:03:44;;;;;;;14.30;8.30;;;;;;;8.26;42.92;102777.25;10513638;28;20211;-83
2022/01/12 10:08:46;;;;;;;12.80;8.20;;;;;;;7.61;43.67;102776.56;10525377;28;20231;-83
2022/01/12 10:13:55;;;;;;;11.80;8.27;;;;;;;8.48;42.05;102785.00;10525881;28;20210;-84
2022/01/12 10:19:01;;;;;;;11.67;7.97;;;;;;;7.65;45.31;102783.34;10492458;28;20222;-83
2022/01/12 10:24:09;;;;;;;13.07;8.27;;;;;;;8.22;43.33;102781.63;10528480;28;20199;-84
2022/01/12 10:29:14;;;;;;;15.83;8.07;;;;;;;8.25;43.47;102786.72;10466807;28;20296;-83
2022/01/12 10:34:17;;;;;;;15.10;8.93;;;;;;;7.48;45.21;102788.00;10503364;28;20202;-83
2022/01/12 10:39:23;;;;;;;17.40;9.90;;;;;;;7.75;45.14;102806.00;10508061;28;20255;-84
2022/01/12 10:44:37;;;;;;;17.87;10.40;;;;;;;7.39;47.05;102807.03;10543324;28;20592;-84
2022/01/12 10:49:43;;;;;;;21.20;11.97;;;;;;;8.05;45.19;102808.66;10524937;28;20218;-83
2022/01/12 10:54:48;;;;;;;17.77;10.83;;;;;;;7.85;45.60;102813.78;10541589;28;20509;-83
2022/01/12 11:00:19;;;;;;;21.20;10.70;;;;;;;7.59;46.14;102821.56;10516958;28;20587;-83
2022/01/12 11:05:24;;;;;;;21.77;11.13;;;;;;;6.96;47.54;102809.22;10517117;28;20209;-83
2022/01/12 11:10:27;;;;;;;20.33;11.07;;;;;;;7.69;46.14;102825.69;10518742;28;20244;-84
2022/01/12 11:15:30;;;;;;;27.90;14.57;;;;;;;7.78;45.99;102819.50;10550357;28;20222;-83
2022/01/12 11:20:33;;;;;;;26.50;13.87;;;;;;;6.52;49.72;102819.69;10530504;28;20497;-83
2022/01/12 11:25:38;;;;;;;30.93;14.27;;;;;;;8.36;46.09;102820.56;10532237;28;20195;-83
2022/01/12 11:30:44;;;;;;;36.83;16.33;;;;;;;7.91;48.29;102818.41;10549496;28;20218;-83
2022/01/12 11:35:49;;;;;;;34.23;16.60;;;;;;;7.96;47.56;102821.34;10524974;28;20206;-83
2022/01/12 11:41:07;;;;;;;36.37;15.90;;;;;;;6.52;50.71;102836.47;10531807;28;20183;-84
2022/01/12 11:46:12;;;;;;;34.83;17.03;;;;;;;7.87;48.30;102825.59;10514330;28;20202;-83
2022/01/12 11:51:17;;;;;;;38.33;17.20;;;;;;;7.79;48.51;102829.59;10520292;28;20523;-84
2022/01/12 11:56:24;;;;;;;41.20;16.97;;;;;;;7.05;49.63;102835.75;10548674;28;20213;-84
2022/01/12 12:01:51;;;;;;;36.77;17.53;;;;;;;8.12;48.45;102826.19;10514877;28;20191;-84
2022/01/12 12:07:10;;;;;;;44.13;19.23;;;;;;;7.86;48.46;102826.69;10528173;28;20339;-84
2022/01/12 12:12:18;;;;;;;38.43;17.60;;;;;;;8.06;48.08;102827.16;10539452;28;20248;-84
2022/01/12 12:17:22;;;;;;;39.40;19.17;;;;;;;7.19;50.18;102831.69;10510262;28;20319;-83
2022/01/12 12:22:25;;;;;;;38.87;17.93;;;;;;;6.93;50.45;102821.72;10513179;28;20210;-83
2022/01/12 12:27:28;;;;;;;40.23;17.30;;;;;;;8.15;48.45;102819.25;10528384;28;20343;-84
2022/01/12 12:32:43;;;;;;;46.83;19.83;;;;;;;8.40;48.28;102821.81;10512572;28;20595;-84
2022/01/12 12:37:52;;;;;;;41.87;19.87;;;;;;;7.95;49.66;102833.63;10510260;28;20234;-84
2022/01/12 12:43:02;;;;;;;41.30;18.63;;;;;;;7.95;49.58;102831.69;10509066;28;20202;-84
2022/01/12 12:48:05;;;;;;;46.67;20.00;;;;;;;8.32;48.91;102837.00;10527523;28;20213;-84
2022/01/12 12:53:08;;;;;;;42.40;20.93;;;;;;;8.29;49.31;102818.72;10543113;28;20220;-84
2022/01/12 12:58:10;;;;;;;43.80;21.37;;;;;;;8.20;49.42;102810.97;10526417;28;20187;-84
2022/01/12 13:03:14;;;;;;;46.37;21.90;;;;;;;8.29;50.11;102820.69;10522833;28;20537;-84
2022/01/12 13:08:17;;;;;;;44.73;22.43;;;;;;;8.54;49.18;102800.81;10523034;28;20218;-83
2022/01/12 13:13:19;;;;;;;39.73;21.07;;;;;;;7.90;49.56;102805.50;10502630;28;20203;-84
2022/01/12 13:18:23;;;;;;;39.07;21.33;;;;;;;8.25;49.00;102803.53;10495556;28;20562;-83
2022/01/12 13:23:28;;;;;;;37.30;19.37;;;;;;;8.77;48.29;102811.94;10500589;28;20206;-83
2022/01/12 13:28:30;;;;;;;38.40;19.97;;;;;;;8.13;50.01;102808.31;10517473;28;20630;-83
2022/01/12 13:33:34;;;;;;;40.33;20.27;;;;;;;8.00;49.22;102808.56;10504564;28;20195;-84
2022/01/12 13:38:36;;;;;;;43.07;21.03;;;;;;;8.83;48.15;102808.13;10509623;28;20200;-84
2022/01/12 13:43:41;;;;;;;45.30;23.10;;;;;;;8.67;48.63;102806.09;10501667;28;20598;-82
2022/01/12 13:49:21;;;;;;;45.07;21.70;;;;;;;8.77;48.53;102811.94;10535902;28;20225;-84
2022/01/12 13:54:31;;;;;;;40.13;21.50;;;;;;;8.67;49.11;102810.91;10511456;28;20509;-84
2022/01/12 13:59:50;;;;;;;45.97;22.03;;;;;;;8.07;50.33;102816.81;10539891;28;20244;-84
2022/01/12 14:05:05;;;;;;;43.53;21.07;;;;;;;8.79;48.00;102826.56;10522109;28;20541;-84
2022/01/12 14:10:11;;;;;;;46.73;21.37;;;;;;;7.99;50.16;102843.25;10508785;28;20221;-84
2022/01/12 14:15:21;;;;;;;43.53;20.40;;;;;;;7.22;51.90;102836.81;10499883;28;20634;-84
2022/01/12 14:20:37;;;;;;;25.50;13.60;;;;;;;8.34;48.33;102822.75;10525490;28;20664;-84
2022/01/12 14:25:46;;;;;;;16.80;9.53;;;;;;;8.66;46.90;102818.44;10544184;28;20202;-85
2022/01/12 14:30:49;;;;;;;26.20;13.00;;;;;;;8.40;47.86;102810.59;10486343;28;20557;-83
2022/01/12 14:35:51;;;;;;;29.40;16.43;;;;;;;8.10;48.73;102819.13;10506387;28;20202;-83
2022/01/12 14:40:53;;;;;;;32.50;15.20;;;;;;;8.27;48.41;102808.91;10524193;28;20599;-82
2022/01/12 14:45:56;;;;;;;28.60;14.67;;;;;;;8.84;46.93;102808.97;10525525;28;20291;-84
2022/01/12 14:50:59;;;;;;;33.27;15.60;;;;;;;8.20;47.63;102810.97;10515079;28;20277;-82
2022/01/12 14:56:03;;;;;;;37.47;16.97;;;;;;;7.77;49.40;102816.94;10501740;28;20564;-84
2022/01/12 15:01:05;;;;;;;31.70;16.40;;;;;;;8.70;46.68;102822.44;10519645;28;20491;-82
2022/01/12 15:06:08;;;;;;;26.90;14.43;;;;;;;8.55;46.45;102816.50;10516225;28;20233;-84
2022/01/12 15:11:11;;;;;;;25.87;14.30;;;;;;;7.09;48.90;102825.81;10544239;28;20209;-83
2022/01/12 15:16:13;;;;;;;31.20;15.27;;;;;;;8.26;53.81;102816.44;10549642;28;20226;-80
2022/01/12 15:21:17;;;;;;;28.57;16.07;;;;;;;7.25;49.61;102827.94;10551202;28;20252;-81
2022/01/12 15:26:19;;;;;;;33.63;15.70;;;;;;;8.46;46.80;102832.00;10520258;28;20226;-81
2022/01/12 15:31:22;;;;;;;28.43;15.43;;;;;;;8.93;45.71;102838.34;10517054;28;20258;-81
2022/01/12 15:36:25;;;;;;;28.00;14.83;;;;;;;8.98;45.43;102835.63;10519925;28;20199;-84
2022/01/12 15:41:30;;;;;;;34.07;16.57;;;;;;;8.38;46.43;102854.78;10526878;28;20199;-83
2022/01/12 15:46:32;;;;;;;36.07;17.50;;;;;;;8.15;47.44;102845.28;10511213;28;20202;-81
2022/01/12 15:51:34;;;;;;;32.07;16.30;;;;;;;8.91;45.46;102849.81;10521475;28;20469;-81
2022/01/12 15:56:36;;;;;;;36.03;17.03;;;;;;;8.09;46.95;102851.03;10500856;28;20283;-82
2022/01/12 16:01:38;;;;;;;35.43;16.47;;;;;;;7.71;48.49;102854.28;10527794;28;20202;-82
2022/01/12 16:06:41;;;;;;;30.67;17.03;;;;;;;8.07;47.15;102861.63;10516620;28;20488;-82
2022/01/12 16:11:43;;;;;;;37.13;17.23;;;;;;;8.79;45.84;102859.34;10518758;28;20218;-81
2022/01/12 16:17:06;;;;;;;29.30;15.10;;;;;;;8.06;47.49;102876.72;10506422;28;20271;-82
2022/01/12 16:22:09;;;;;;;29.60;15.30;;;;;;;9.12;45.20;102881.03;10519453;28;20619;-81
2022/01/12 16:27:11;;;;;;;28.10;15.77;;;;;;;8.86;45.86;102879.66;10516469;28;20310;-81
2022/01/12 16:32:13;;;;;;;27.73;14.60;;;;;;;8.70;45.19;102884.09;10484622;28;20258;-82
2022/01/12 16:37:16;;;;;;;27.17;14.73;;;;;;;8.84;45.41;102888.31;10519083;28;20233;-82
2022/01/12 16:42:18;;;;;;;24.33;14.10;;;;;;;9.02;44.73;102893.75;10530765;28;20194;-82
2022/01/12 16:47:21;;;;;;;26.97;14.33;;;;;;;8.29;47.02;102883.16;10520688;28;20206;-81
2022/01/12 16:52:23;;;;;;;22.33;13.73;;;;;;;8.35;46.01;102886.06;10534846;28;20626;-82
2022/01/12 16:57:25;;;;;;;23.47;14.03;;;;;;;8.40;45.96;102894.63;10520765;28;20305;-82
2022/01/12 17:02:27;;;;;;;31.47;15.67;;;;;;;8.52;45.61;102875.88;10503520;28;20194;-82
2022/01/12 17:07:30;;;;;;;30.63;17.40;;;;;;;8.78;44.42;102880.06;10502099;28;20225;-82
2022/01/12 17:12:37;;;;;;;36.43;19.90;;;;;;;8.80;44.87;102875.88;10516938;28;20275;-81
2022/01/12 17:18:17;;;;;;;31.80;17.73;;;;;;;8.97;44.61;102871.22;10534199;28;20230;-82
2022/01/12 17:23:20;;;;;;;30.63;18.07;;;;;;;8.89;44.81;102877.22;10533234;28;20234;-82
2022/01/12 17:28:23;;;;;;;32.07;17.27;;;;;;;8.69;45.09;102881.53;10520102;28;20251;-81
2022/01/12 17:33:26;;;;;;;32.23;17.40;;;;;;;9.06;44.35;102879.25;10516565;28;20492;-83
2022/01/12 17:38:30;;;;;;;26.90;15.67;;;;;;;8.77;44.93;102895.19;10501000;28;20194;-84
2022/01/12 17:43:32;;;;;;;28.43;16.63;;;;;;;8.64;45.54;102913.13;10518016;28;20226;-84
2022/01/12 17:48:37;;;;;;;30.93;17.40;;;;;;;8.72;45.37;102921.13;10517876;28;20221;-84
2022/01/12 17:53:39;;;;;;;31.23;15.73;;;;;;;8.47;45.62;102923.38;10518703;28;20206;-82
2022/01/12 17:58:43;;;;;;;30.40;16.00;;;;;;;8.40;45.47;102911.44;10533139;28;20198;-84
2022/01/12 18:03:46;;;;;;;32.83;17.07;;;;;;;8.57;45.03;102918.84;10536218;28;20672;-83
2022/01/12 18:08:48;;;;;;;34.13;17.87;;;;;;;8.39;45.02;102910.56;10515068;28;20284;-83
2022/01/12 18:13:51;;;;;;;28.57;16.97;;;;;;;8.13;45.42;102909.09;10520046;28;20198;-84
2022/01/12 18:18:56;;;;;;;30.43;15.97;;;;;;;8.51;44.61;102916.19;10519533;28;20650;-82
2022/01/12 18:24:01;;;;;;;35.83;16.50;;;;;;;8.58;45.04;102926.16;10495364;28;20210;-82
2022/01/12 18:29:10;;;;;;;30.73;16.17;;;;;;;8.65;44.75;102932.50;10518232;28;20988;-83
2022/01/12 18:34:12;;;;;;;31.00;14.70;;;;;;;8.00;45.42;102934.53;10502714;28;20222;-82
2022/01/12 18:39:18;;;;;;;30.67;14.97;;;;;;;8.65;44.49;102942.84;10498319;28;20206;-83
2022/01/12 18:44:20;;;;;;;32.13;15.23;;;;;;;8.16;45.60;102955.34;10515272;28;20211;-82
2022/01/12 18:49:23;;;;;;;31.30;14.70;;;;;;;8.54;44.28;102954.94;10512798;28;20264;-84
2022/01/12 18:54:25;;;;;;;31.30;15.07;;;;;;;8.64;44.80;102969.16;10514700;28;20600;-82
2022/01/12 18:59:28;;;;;;;37.83;18.97;;;;;;;8.35;45.03;102973.75;10512695;28;20202;-83
2022/01/12 19:04:30;;;;;;;30.27;17.30;;;;;;;8.10;46.04;102979.59;10528248;28;20285;-81
2022/01/12 19:09:32;;;;;;;27.20;14.70;;;;;;;7.54;46.58;102975.28;10517291;28;20258;-81
2022/01/12 19:14:35;;;;;;;28.13;15.23;;;;;;;7.56;46.60;102987.09;10514911;28;20675;-84
2022/01/12 19:19:38;;;;;;;25.20;13.43;;;;;;;7.53;47.18;102984.75;10469860;28;20226;-83
2022/01/12 19:24:40;;;;;;;27.10;14.67;;;;;;;7.69;46.30;102996.38;10475804;28;20216;-83
2022/01/12 19:29:42;;;;;;;30.60;15.90;;;;;;;7.44;47.19;102997.38;10494940;28;20526;-83
2022/01/12 19:34:49;;;;;;;30.33;16.80;;;;;;;8.38;45.00;102989.25;10459483;28;20211;-82
2022/01/12 19:39:51;;;;;;;32.60;16.93;;;;;;;8.32;44.94;102989.09;10443953;28;20457;-83
2022/01/12 19:44:53;;;;;;;33.60;16.27;;;;;;;7.62;45.92;103004.03;10489794;28;20256;-82
2022/01/12 19:49:56;;;;;;;35.17;17.07;;;;;;;7.83;46.13;103007.16;10493362;28;20705;-83
2022/01/12 19:55:22;;;;;;;39.00;18.10;;;;;;;6.98;47.59;103011.06;10484116;28;20512;-83
2022/01/12 20:00:42;;;;;;;37.43;18.17;;;;;;;6.87;47.81;103009.88;10491399;28;20685;-83
2022/01/12 20:05:45;;;;;;;34.27;16.73;;;;;;;6.45;49.17;103006.91;10482744;28;20226;-83
2022/01/12 20:10:47;;;;;;;31.07;17.03;;;;;;;7.06;47.47;102996.78;10497937;28;20227;-82
2022/01/12 20:15:54;;;;;;;33.70;15.87;;;;;;;6.78;48.34;102998.16;10515882;28;20298;-82
2022/01/12 20:26:20;;;;;;;31.90;16.53;;;;;;;7.19;47.60;102977.06;10537036;28;20237;-83
2022/01/12 20:31:23;;;;;;;34.93;16.77;;;;;;;6.11;50.99;102985.06;10510021;28;20287;-82
2022/01/12 20:36:25;;;;;;;37.00;18.63;;;;;;;7.26;47.87;102983.41;10496171;28;20263;-82
2022/01/12 20:41:32;;;;;;;37.63;17.90;;;;;;;7.34;47.79;102980.31;10515032;28;20226;-83
2022/01/12 20:46:35;;;;;;;40.87;18.57;;;;;;;7.15;47.73;102975.81;10515967;28;20230;-81
2022/01/12 20:51:40;;;;;;;35.33;17.77;;;;;;;6.61;49.05;102980.28;10518998;28;20295;-81
2022/01/12 20:56:43;;;;;;;44.77;18.60;;;;;;;6.76;48.63;102980.78;10520720;28;20280;-82
2022/01/12 21:01:45;;;;;;;42.20;19.60;;;;;;;6.45;49.61;102976.19;10543175;28;20198;-84
2022/01/12 21:06:50;;;;;;;44.03;20.47;;;;;;;6.21;50.61;102990.13;10501775;28;20234;-84
2022/01/12 21:11:53;;;;;;;36.37;18.77;;;;;;;6.73;48.99;102986.81;10530120;28;20758;-83
2022/01/12 21:16:56;;;;;;;35.50;17.43;;;;;;;6.40;49.73;102991.91;10517253;28;20295;-83
2022/01/12 21:21:58;;;;;;;47.20;19.20;;;;;;;6.24;50.13;102990.53;10520235;28;20279;-84
2022/01/12 21:27:01;;;;;;;40.23;18.17;;;;;;;6.42;49.62;102982.22;10506334;28;20210;-84
2022/01/12 21:32:03;;;;;;;40.17;19.83;;;;;;;6.46;49.69;102993.78;10523612;28;20249;-85
2022/01/12 21:37:08;;;;;;;39.23;19.87;;;;;;;6.39;50.00;102999.41;10519169;28;20506;-81
2022/01/12 21:42:11;;;;;;;42.17;18.33;;;;;;;6.73;48.85;102981.22;10530109;28;20230;-84
2022/01/12 21:47:13;;;;;;;41.03;18.17;;;;;;;6.06;50.96;102987.69;10523219;28;20203;-83
2022/01/12 21:52:15;;;;;;;38.30;18.30;;;;;;;6.95;48.55;102991.97;10516174;28;20311;-82
2022/01/12 21:57:18;;;;;;;38.40;17.70;;;;;;;6.58;49.06;103002.25;10533526;28;20551;-82
2022/01/12 22:02:21;;;;;;;38.70;18.73;;;;;;;7.02;48.56;103003.91;10500729;28;20206;-84
2022/01/12 22:07:25;;;;;;;39.13;17.90;;;;;;;6.78;49.03;103003.75;10509644;28;20233;-83
2022/01/12 22:12:27;;;;;;;36.57;18.20;;;;;;;6.46;49.59;103013.34;10509512;28;20319;-83
2022/01/12 22:17:29;;;;;;;40.20;17.97;;;;;;;6.33;49.80;102999.50;10504134;28;20221;-83
2022/01/12 22:22:31;;;;;;;37.53;17.77;;;;;;;6.02;50.87;103009.63;10501553;28;20473;-82
2022/01/12 22:27:34;;;;;;;32.30;18.70;;;;;;;6.59;49.70;102990.00;10493079;28;20206;-82
2022/01/12 22:32:37;;;;;;;39.17;18.73;;;;;;;7.10;48.40;102995.22;10510215;28;20527;-83
2022/01/12 22:37:39;;;;;;;34.03;17.80;;;;;;;6.72;49.56;102976.72;10538125;28;20605;-83
2022/01/12 22:42:41;;;;;;;39.93;19.13;;;;;;;6.15;50.59;102976.03;10504786;28;20203;-83
2022/01/12 22:47:44;;;;;;;35.00;19.47;;;;;;;5.95;51.50;102975.31;10527848;28;20579;-84
2022/01/12 22:52:46;;;;;;;36.60;18.47;;;;;;;5.98;51.01;102972.06;10510830;28;20237;-83
2022/01/12 22:57:55;;;;;;;32.70;18.47;;;;;;;6.97;49.20;102967.44;10521992;28;20771;-83
2022/01/12 23:02:57;;;;;;;37.83;18.93;;;;;;;6.40;50.52;102973.22;10512852;28;20224;-83
2022/01/12 23:08:00;;;;;;;38.10;19.87;;;;;;;6.47;51.21;102956.38;10515184;28;20561;-82
2022/01/12 23:13:03;;;;;;;34.90;18.90;;;;;;;6.42;50.38;102945.06;10506691;28;20230;-81
2022/01/12 23:18:05;;;;;;;37.07;19.80;;;;;;;6.89;49.36;102944.28;10516084;28;20268;-83
2022/01/12 23:23:07;;;;;;;34.17;17.53;;;;;;;6.85;49.07;102945.84;10518187;28;20568;-81
2022/01/12 23:28:10;;;;;;;34.27;18.10;;;;;;;6.93;49.53;102955.88;10496230;28;20254;-83
2022/01/12 23:33:36;;;;;;;33.97;18.17;;;;;;;6.78;49.58;102967.44;10510301;28;20294;-81
2022/01/12 23:49:56;;;;;;;35.23;17.70;;;;;;;6.53;50.17;102945.16;10478824;28;20206;-84
2022/01/12 23:55:06;;;;;;;29.07;17.37;;;;;;;6.75;49.67;102964.25;10531209;28;20271;-83
